Detall de PIREP

Printer-friendly versionPDF version

[2016/02/10 08:35:00]
Flight IATA:CT3108
Pilot Number:012
Company ICAO:CAT
Aircraft Type:F50/A
PAX:50
Aircraft Registration:PAOB
Departing Airport: LIEA
Destination Airport: LEZG
Alternate Airport:LEBL
Online: VATSIM
Route:GINOX UM601 MUREN G23 GRAUS
Flight Level:F230
No Slew and time accel
No pause
Crash detect
Detect pilot in Cockpit between each 30 and 45 minutes
08:35 Zero fuel Weight: 37778 Lbs, Fuel Weight: 7881 Lbs
08:35 VATSIM:LIEA 100820Z 31006KT 260V350 9999 FEW040 12/06 Q1011
08:35 VATSIM:LEZG 100800Z 28004KT 9999 FEW040 SCT080 08/05 Q1012
08:35 Parking Brakes off
08:41 Take-off
08:41 Take off Weight: 45568 Lbs
08:41 Wind: 296º @ 006 Knots Heading: 207º
08:41 POS N40º 37´ 46´´ E008º 17´ 21´´
08:41 Gear Up: 118 Knots
08:41 Flaps:3 at 118 Knots
08:42 Flaps:2 at 141 Knots
08:42 Flaps:1 at 150 Knots
08:42 Flaps:0 at 157 Knots
08:56 Wind:290º@080 Knots Heading: 304º Ground Speed: 138 Knots Altitude 17116 ft
09:05 TOC
09:05 Fuel Weight: 6995 Lb
09:11 Wind:291º@094 Knots Heading: 279º Ground Speed: 162 Knots Altitude 22854 ft
09:26 Wind:291º@097 Knots Heading: 279º Ground Speed: 159 Knots Altitude 22864 ft
09:41 Wind:289º@084 Knots Heading: 281º Ground Speed: 170 Knots Altitude 22900 ft
09:56 Wind:289º@083 Knots Heading: 281º Ground Speed: 171 Knots Altitude 22952 ft
10:11 Wind:290º@090 Knots Heading: 282º Ground Speed: 165 Knots Altitude 22959 ft
10:26 Wind:285º@086 Knots Heading: 279º Ground Speed: 169 Knots Altitude 22946 ft
10:41 Wind:284º@084 Knots Heading: 292º Ground Speed: 171 Knots Altitude 22965 ft
10:56 Wind:286º@082 Knots Heading: 293º Ground Speed: 173 Knots Altitude 22959 ft
11:03 TOD
11:03 Fuel Weight: 4076 Lb
11:11 Wind:284º@061 Knots Heading: 267º Ground Speed: 185 Knots Altitude 10780 ft
11:24 Flaps:1 at 180 Knots
11:24 Flaps:2 at 164 Knots
11:25 Flaps:3 at 156 Knots
11:25 Gear Down: 153 Knots
11:25 Flaps:4 at 128 Knots
11:25 Flaps:5 at 107 Knots
11:26 Wind:000º@000 Knots Heading: 299º Ground Speed: 108 Knots Altitude 1295 ft
11:26 Flaps:6 at 107 Knots
11:27 TouchDown:Rate -132 ft/min Speed: 105 Knots
11:27 Flaps:3 at 12 Knots
11:27 VATSIM:LEZG 101100Z VRB02KT 9999 BKN050 10/05 Q1011
11:27 Land
11:27 Wind:000º@000 Knots
11:27 Heading: 299º
11:27 Flight Duration: 02:46
11:27 Landing Weight: 41428 Lbs
11:27 POS N41º 39´ 34´´ W001º 01´ 05´´
11:30 Parking brakes on
11:30 Block to Block Duration: 02:55
11:30 Final Fuel: 3617 Lbls
11:30 Spent Fuel: 4263 Lbls
11:30 Flight Length: 468 NM
11:30 TOD Land Length: 78 NM

Exportar CSV

Powered by Drupal - Modified by Danger4k